sensor_id;sensor_type;location;lat;lon;timestamp;P1;durP1;ratioP1;P2;durP2;ratioP2
65715;SDS011;63484;52.054;8.518;2023-02-28T00:03:44;15.93;;;5.93;;
65715;SDS011;63484;52.054;8.518;2023-02-28T00:08:45;14.93;;;5.73;;
65715;SDS011;63484;52.054;8.518;2023-02-28T00:13:46;12.73;;;5.97;;
65715;SDS011;63484;52.054;8.518;2023-02-28T00:18:50;15.00;;;6.10;;
65715;SDS011;63484;52.054;8.518;2023-02-28T00:23:52;11.60;;;5.43;;
65715;SDS011;63484;52.054;8.518;2023-02-28T00:28:53;12.90;;;5.97;;
65715;SDS011;63484;52.054;8.518;2023-02-28T00:33:57;13.40;;;6.25;;
65715;SDS011;63484;52.054;8.518;2023-02-28T00:38:59;10.83;;;5.93;;
65715;SDS011;63484;52.054;8.518;2023-02-28T00:44:02;13.87;;;6.63;;
65715;SDS011;63484;52.054;8.518;2023-02-28T00:49:07;14.37;;;5.80;;
65715;SDS011;63484;52.054;8.518;2023-02-28T00:54:09;13.73;;;6.30;;
65715;SDS011;63484;52.054;8.518;2023-02-28T00:59:11;11.30;;;5.60;;
65715;SDS011;63484;52.054;8.518;2023-02-28T01:04:14;10.07;;;5.43;;
65715;SDS011;63484;52.054;8.518;2023-02-28T01:09:16;10.68;;;5.22;;
65715;SDS011;63484;52.054;8.518;2023-02-28T01:14:17;9.03;;;5.07;;
65715;SDS011;63484;52.054;8.518;2023-02-28T01:19:21;10.57;;;5.63;;
65715;SDS011;63484;52.054;8.518;2023-02-28T01:24:22;14.77;;;6.37;;
65715;SDS011;63484;52.054;8.518;2023-02-28T01:29:24;11.53;;;5.43;;
65715;SDS011;63484;52.054;8.518;2023-02-28T01:34:28;12.47;;;5.27;;
65715;SDS011;63484;52.054;8.518;2023-02-28T01:39:29;14.00;;;5.43;;
65715;SDS011;63484;52.054;8.518;2023-02-28T01:50:13;13.20;;;5.40;;
65715;SDS011;63484;52.054;8.518;2023-02-28T01:55:18;16.17;;;5.90;;
65715;SDS011;63484;52.054;8.518;2023-02-28T02:00:23;16.43;;;7.00;;
65715;SDS011;63484;52.054;8.518;2023-02-28T02:05:29;16.57;;;6.23;;
65715;SDS011;63484;52.054;8.518;2023-02-28T02:10:32;16.17;;;6.63;;
65715;SDS011;63484;52.054;8.518;2023-02-28T02:15:39;12.63;;;5.80;;
65715;SDS011;63484;52.054;8.518;2023-02-28T02:20:51;16.43;;;6.33;;
65715;SDS011;63484;52.054;8.518;2023-02-28T02:31:51;15.80;;;6.57;;
65715;SDS011;63484;52.054;8.518;2023-02-28T02:37:10;14.10;;;6.17;;
65715;SDS011;63484;52.054;8.518;2023-02-28T02:42:18;15.47;;;6.40;;
65715;SDS011;63484;52.054;8.518;2023-02-28T02:47:25;15.33;;;5.77;;
65715;SDS011;63484;52.054;8.518;2023-02-28T02:52:32;11.77;;;5.87;;
65715;SDS011;63484;52.054;8.518;2023-02-28T02:57:40;14.43;;;6.27;;
65715;SDS011;63484;52.054;8.518;2023-02-28T03:02:47;13.23;;;6.03;;
65715;SDS011;63484;52.054;8.518;2023-02-28T03:07:53;14.00;;;5.87;;
65715;SDS011;63484;52.054;8.518;2023-02-28T03:12:57;12.50;;;5.43;;
65715;SDS011;63484;52.054;8.518;2023-02-28T03:18:09;10.52;;;5.13;;
65715;SDS011;63484;52.054;8.518;2023-02-28T03:23:19;14.43;;;5.27;;
65715;SDS011;63484;52.054;8.518;2023-02-28T03:28:28;11.23;;;5.37;;
65715;SDS011;63484;52.054;8.518;2023-02-28T03:33:34;12.00;;;5.17;;
65715;SDS011;63484;52.054;8.518;2023-02-28T03:38:42;9.77;;;5.07;;
65715;SDS011;63484;52.054;8.518;2023-02-28T03:43:48;10.37;;;4.40;;
65715;SDS011;63484;52.054;8.518;2023-02-28T03:49:01;11.80;;;4.80;;
65715;SDS011;63484;52.054;8.518;2023-02-28T03:54:09;11.53;;;4.27;;
65715;SDS011;63484;52.054;8.518;2023-02-28T03:59:15;9.23;;;4.50;;
65715;SDS011;63484;52.054;8.518;2023-02-28T04:04:20;8.87;;;4.23;;
65715;SDS011;63484;52.054;8.518;2023-02-28T04:09:23;12.67;;;4.87;;
65715;SDS011;63484;52.054;8.518;2023-02-28T04:14:25;11.00;;;5.13;;
65715;SDS011;63484;52.054;8.518;2023-02-28T04:19:26;10.17;;;4.77;;
65715;SDS011;63484;52.054;8.518;2023-02-28T04:24:29;13.13;;;4.60;;
65715;SDS011;63484;52.054;8.518;2023-02-28T04:29:31;10.70;;;4.90;;
65715;SDS011;63484;52.054;8.518;2023-02-28T04:34:33;10.97;;;5.13;;
65715;SDS011;63484;52.054;8.518;2023-02-28T04:39:36;8.83;;;4.50;;
65715;SDS011;63484;52.054;8.518;2023-02-28T04:44:37;11.82;;;4.90;;
65715;SDS011;63484;52.054;8.518;2023-02-28T04:49:39;11.60;;;5.40;;
65715;SDS011;63484;52.054;8.518;2023-02-28T04:54:43;12.07;;;5.47;;
65715;SDS011;63484;52.054;8.518;2023-02-28T05:04:46;12.43;;;5.13;;
65715;SDS011;63484;52.054;8.518;2023-02-28T05:09:49;11.17;;;5.70;;
65715;SDS011;63484;52.054;8.518;2023-02-28T05:14:50;13.23;;;5.50;;
65715;SDS011;63484;52.054;8.518;2023-02-28T05:19:51;16.43;;;5.70;;
65715;SDS011;63484;52.054;8.518;2023-02-28T05:24:54;12.80;;;5.60;;
65715;SDS011;63484;52.054;8.518;2023-02-28T05:29:55;14.73;;;5.90;;
65715;SDS011;63484;52.054;8.518;2023-02-28T05:34:57;12.27;;;5.53;;
65715;SDS011;63484;52.054;8.518;2023-02-28T05:40:00;14.17;;;5.37;;
65715;SDS011;63484;52.054;8.518;2023-02-28T05:45:01;13.47;;;6.50;;
65715;SDS011;63484;52.054;8.518;2023-02-28T05:50:03;14.23;;;5.90;;
65715;SDS011;63484;52.054;8.518;2023-02-28T05:55:08;13.10;;;5.60;;
65715;SDS011;63484;52.054;8.518;2023-02-28T06:00:10;12.07;;;5.60;;
65715;SDS011;63484;52.054;8.518;2023-02-28T06:05:15;14.40;;;6.10;;
65715;SDS011;63484;52.054;8.518;2023-02-28T06:10:19;11.80;;;6.38;;
65715;SDS011;63484;52.054;8.518;2023-02-28T06:15:21;14.23;;;6.28;;
65715;SDS011;63484;52.054;8.518;2023-02-28T06:20:23;15.80;;;6.80;;
65715;SDS011;63484;52.054;8.518;2023-02-28T06:25:27;16.08;;;8.02;;
65715;SDS011;63484;52.054;8.518;2023-02-28T06:30:29;17.45;;;7.93;;
65715;SDS011;63484;52.054;8.518;2023-02-28T06:35:31;20.87;;;9.77;;
65715;SDS011;63484;52.054;8.518;2023-02-28T06:40:34;20.47;;;8.50;;
65715;SDS011;63484;52.054;8.518;2023-02-28T06:45:35;18.67;;;7.05;;
65715;SDS011;63484;52.054;8.518;2023-02-28T06:50:37;16.10;;;6.80;;
65715;SDS011;63484;52.054;8.518;2023-02-28T06:55:40;11.80;;;5.63;;
65715;SDS011;63484;52.054;8.518;2023-02-28T07:00:42;16.17;;;6.82;;
65715;SDS011;63484;52.054;8.518;2023-02-28T07:05:44;15.40;;;7.00;;
65715;SDS011;63484;52.054;8.518;2023-02-28T07:10:47;17.63;;;7.47;;
65715;SDS011;63484;52.054;8.518;2023-02-28T07:15:52;16.97;;;7.73;;
65715;SDS011;63484;52.054;8.518;2023-02-28T07:20:55;14.70;;;7.60;;
65715;SDS011;63484;52.054;8.518;2023-02-28T07:25:58;12.37;;;7.10;;
65715;SDS011;63484;52.054;8.518;2023-02-28T07:31:03;12.98;;;6.40;;
65715;SDS011;63484;52.054;8.518;2023-02-28T07:36:05;12.55;;;6.63;;
65715;SDS011;63484;52.054;8.518;2023-02-28T07:41:10;9.45;;;6.22;;
65715;SDS011;63484;52.054;8.518;2023-02-28T07:46:12;15.70;;;6.80;;
65715;SDS011;63484;52.054;8.518;2023-02-28T07:51:15;11.77;;;6.82;;
65715;SDS011;63484;52.054;8.518;2023-02-28T07:56:18;9.48;;;6.05;;
65715;SDS011;63484;52.054;8.518;2023-02-28T08:01:20;8.85;;;6.07;;
65715;SDS011;63484;52.054;8.518;2023-02-28T08:06:22;13.95;;;6.00;;
65715;SDS011;63484;52.054;8.518;2023-02-28T08:11:26;9.85;;;6.18;;
65715;SDS011;63484;52.054;8.518;2023-02-28T08:16:27;9.93;;;5.97;;
65715;SDS011;63484;52.054;8.518;2023-02-28T08:21:29;8.73;;;5.03;;
65715;SDS011;63484;52.054;8.518;2023-02-28T08:26:32;10.13;;;5.50;;
65715;SDS011;63484;52.054;8.518;2023-02-28T08:31:33;8.43;;;5.20;;
65715;SDS011;63484;52.054;8.518;2023-02-28T08:36:35;7.05;;;4.75;;
65715;SDS011;63484;52.054;8.518;2023-02-28T08:41:38;6.50;;;4.38;;
65715;SDS011;63484;52.054;8.518;2023-02-28T08:46:39;9.27;;;5.17;;
65715;SDS011;63484;52.054;8.518;2023-02-28T08:51:40;8.07;;;3.88;;
65715;SDS011;63484;52.054;8.518;2023-02-28T08:56:43;8.13;;;3.40;;
65715;SDS011;63484;52.054;8.518;2023-02-28T09:01:45;6.88;;;3.83;;
65715;SDS011;63484;52.054;8.518;2023-02-28T09:06:46;7.13;;;3.53;;
65715;SDS011;63484;52.054;8.518;2023-02-28T09:11:50;7.05;;;3.83;;
65715;SDS011;63484;52.054;8.518;2023-02-28T09:16:51;10.38;;;4.40;;
65715;SDS011;63484;52.054;8.518;2023-02-28T09:21:52;5.85;;;3.60;;
65715;SDS011;63484;52.054;8.518;2023-02-28T09:26:55;10.50;;;3.13;;
65715;SDS011;63484;52.054;8.518;2023-02-28T09:31:56;4.85;;;2.70;;
65715;SDS011;63484;52.054;8.518;2023-02-28T09:36:58;6.80;;;2.92;;
65715;SDS011;63484;52.054;8.518;2023-02-28T09:42:01;4.28;;;2.55;;
65715;SDS011;63484;52.054;8.518;2023-02-28T09:47:05;5.47;;;2.80;;
65715;SDS011;63484;52.054;8.518;2023-02-28T09:52:13;5.88;;;2.70;;
65715;SDS011;63484;52.054;8.518;2023-02-28T09:57:19;4.50;;;2.60;;
65715;SDS011;63484;52.054;8.518;2023-02-28T10:02:41;5.03;;;2.45;;
65715;SDS011;63484;52.054;8.518;2023-02-28T10:07:56;4.68;;;2.40;;
65715;SDS011;63484;52.054;8.518;2023-02-28T10:13:14;3.08;;;1.77;;
65715;SDS011;63484;52.054;8.518;2023-02-28T10:18:22;2.35;;;1.20;;
65715;SDS011;63484;52.054;8.518;2023-02-28T10:23:28;3.45;;;1.15;;
65715;SDS011;63484;52.054;8.518;2023-02-28T10:28:34;2.90;;;1.08;;
65715;SDS011;63484;52.054;8.518;2023-02-28T10:33:35;2.78;;;1.23;;
65715;SDS011;63484;52.054;8.518;2023-02-28T10:38:37;2.30;;;1.00;;
65715;SDS011;63484;52.054;8.518;2023-02-28T10:43:42;2.92;;;1.00;;
65715;SDS011;63484;52.054;8.518;2023-02-28T10:48:45;1.38;;;0.70;;
65715;SDS011;63484;52.054;8.518;2023-02-28T10:53:51;1.77;;;0.90;;
65715;SDS011;63484;52.054;8.518;2023-02-28T11:03:58;4.13;;;0.90;;
65715;SDS011;63484;52.054;8.518;2023-02-28T11:09:01;1.60;;;0.80;;
65715;SDS011;63484;52.054;8.518;2023-02-28T11:14:14;4.05;;;1.17;;
65715;SDS011;63484;52.054;8.518;2023-02-28T11:19:22;2.95;;;1.08;;
65715;SDS011;63484;52.054;8.518;2023-02-28T11:24:27;2.63;;;1.10;;
65715;SDS011;63484;52.054;8.518;2023-02-28T11:29:33;2.15;;;1.05;;
65715;SDS011;63484;52.054;8.518;2023-02-28T11:34:36;3.45;;;0.95;;
65715;SDS011;63484;52.054;8.518;2023-02-28T11:39:38;2.27;;;1.13;;
65715;SDS011;63484;52.054;8.518;2023-02-28T11:44:45;3.92;;;1.02;;
65715;SDS011;63484;52.054;8.518;2023-02-28T11:50:02;2.15;;;1.15;;
65715;SDS011;63484;52.054;8.518;2023-02-28T11:55:16;4.05;;;1.33;;
65715;SDS011;63484;52.054;8.518;2023-02-28T12:00:29;4.13;;;1.05;;
65715;SDS011;63484;52.054;8.518;2023-02-28T12:05:41;2.65;;;1.33;;
65715;SDS011;63484;52.054;8.518;2023-02-28T12:10:51;1.85;;;1.10;;
65715;SDS011;63484;52.054;8.518;2023-02-28T12:16:15;2.22;;;1.10;;
65715;SDS011;63484;52.054;8.518;2023-02-28T12:21:31;1.55;;;1.10;;
65715;SDS011;63484;52.054;8.518;2023-02-28T12:26:44;5.00;;;1.40;;
65715;SDS011;63484;52.054;8.518;2023-02-28T12:31:49;5.57;;;1.13;;
65715;SDS011;63484;52.054;8.518;2023-02-28T12:36:53;2.47;;;1.10;;
65715;SDS011;63484;52.054;8.518;2023-02-28T12:42:00;2.08;;;1.23;;
65715;SDS011;63484;52.054;8.518;2023-02-28T12:47:08;2.70;;;1.13;;
65715;SDS011;63484;52.054;8.518;2023-02-28T12:52:16;3.30;;;1.30;;
65715;SDS011;63484;52.054;8.518;2023-02-28T12:57:25;1.60;;;1.20;;
65715;SDS011;63484;52.054;8.518;2023-02-28T13:02:45;2.78;;;1.00;;
65715;SDS011;63484;52.054;8.518;2023-02-28T13:13:40;4.00;;;1.70;;
65715;SDS011;63484;52.054;8.518;2023-02-28T13:18:47;3.50;;;1.65;;
65715;SDS011;63484;52.054;8.518;2023-02-28T13:23:57;3.20;;;1.48;;
65715;SDS011;63484;52.054;8.518;2023-02-28T13:29:01;3.88;;;1.90;;
65715;SDS011;63484;52.054;8.518;2023-02-28T13:34:11;4.65;;;1.25;;
65715;SDS011;63484;52.054;8.518;2023-02-28T13:50:27;2.75;;;1.40;;
65715;SDS011;63484;52.054;8.518;2023-02-28T13:55:31;2.88;;;1.55;;
65715;SDS011;63484;52.054;8.518;2023-02-28T14:00:44;2.50;;;1.83;;
65715;SDS011;63484;52.054;8.518;2023-02-28T14:06:09;4.80;;;2.00;;
65715;SDS011;63484;52.054;8.518;2023-02-28T14:11:24;4.20;;;1.48;;
65715;SDS011;63484;52.054;8.518;2023-02-28T14:16:35;3.58;;;1.42;;
65715;SDS011;63484;52.054;8.518;2023-02-28T14:21:46;2.30;;;1.40;;
65715;SDS011;63484;52.054;8.518;2023-02-28T14:32:31;4.60;;;1.55;;
65715;SDS011;63484;52.054;8.518;2023-02-28T14:37:38;3.33;;;1.80;;
65715;SDS011;63484;52.054;8.518;2023-02-28T14:42:45;3.42;;;1.60;;
65715;SDS011;63484;52.054;8.518;2023-02-28T14:47:50;3.45;;;1.60;;
65715;SDS011;63484;52.054;8.518;2023-02-28T14:52:54;4.13;;;2.05;;
65715;SDS011;63484;52.054;8.518;2023-02-28T14:57:56;3.40;;;1.60;;
65715;SDS011;63484;52.054;8.518;2023-02-28T15:02:59;3.80;;;1.50;;
65715;SDS011;63484;52.054;8.518;2023-02-28T15:08:05;3.20;;;1.58;;
65715;SDS011;63484;52.054;8.518;2023-02-28T15:13:12;5.05;;;1.77;;
65715;SDS011;63484;52.054;8.518;2023-02-28T15:18:17;1.73;;;1.35;;
65715;SDS011;63484;52.054;8.518;2023-02-28T15:23:28;5.18;;;1.90;;
65715;SDS011;63484;52.054;8.518;2023-02-28T15:28:30;3.90;;;1.85;;
65715;SDS011;63484;52.054;8.518;2023-02-28T15:33:33;3.83;;;1.88;;
65715;SDS011;63484;52.054;8.518;2023-02-28T15:38:36;5.03;;;2.40;;
65715;SDS011;63484;52.054;8.518;2023-02-28T15:43:37;5.55;;;2.63;;
65715;SDS011;63484;52.054;8.518;2023-02-28T15:48:42;4.82;;;1.95;;
65715;SDS011;63484;52.054;8.518;2023-02-28T15:53:47;3.90;;;2.10;;
65715;SDS011;63484;52.054;8.518;2023-02-28T15:58:52;4.10;;;1.92;;
65715;SDS011;63484;52.054;8.518;2023-02-28T16:03:56;7.22;;;2.30;;
65715;SDS011;63484;52.054;8.518;2023-02-28T16:09:03;4.18;;;2.53;;
65715;SDS011;63484;52.054;8.518;2023-02-28T16:14:15;5.80;;;2.38;;
65715;SDS011;63484;52.054;8.518;2023-02-28T16:19:18;3.83;;;2.20;;
65715;SDS011;63484;52.054;8.518;2023-02-28T16:24:21;3.70;;;2.10;;
65715;SDS011;63484;52.054;8.518;2023-02-28T16:29:24;4.43;;;2.17;;
65715;SDS011;63484;52.054;8.518;2023-02-28T16:34:29;7.45;;;2.70;;
65715;SDS011;63484;52.054;8.518;2023-02-28T16:39:32;3.88;;;2.20;;
65715;SDS011;63484;52.054;8.518;2023-02-28T16:44:35;6.32;;;2.60;;
65715;SDS011;63484;52.054;8.518;2023-02-28T16:49:37;6.33;;;2.40;;
65715;SDS011;63484;52.054;8.518;2023-02-28T16:54:41;5.90;;;2.22;;
65715;SDS011;63484;52.054;8.518;2023-02-28T16:59:42;4.43;;;2.30;;
65715;SDS011;63484;52.054;8.518;2023-02-28T17:04:44;3.28;;;2.08;;
65715;SDS011;63484;52.054;8.518;2023-02-28T17:09:46;5.15;;;2.33;;
65715;SDS011;63484;52.054;8.518;2023-02-28T17:14:48;5.65;;;2.30;;
65715;SDS011;63484;52.054;8.518;2023-02-28T17:19:49;5.13;;;2.30;;
65715;SDS011;63484;52.054;8.518;2023-02-28T17:24:52;8.48;;;2.67;;
65715;SDS011;63484;52.054;8.518;2023-02-28T17:29:57;6.93;;;2.45;;
65715;SDS011;63484;52.054;8.518;2023-02-28T17:34:59;3.78;;;2.63;;
65715;SDS011;63484;52.054;8.518;2023-02-28T17:40:02;4.55;;;2.55;;
65715;SDS011;63484;52.054;8.518;2023-02-28T17:45:05;6.07;;;2.95;;
65715;SDS011;63484;52.054;8.518;2023-02-28T17:50:10;8.40;;;3.80;;
65715;SDS011;63484;52.054;8.518;2023-02-28T17:55:16;6.97;;;3.60;;
65715;SDS011;63484;52.054;8.518;2023-02-28T18:00:19;7.70;;;3.60;;
65715;SDS011;63484;52.054;8.518;2023-02-28T18:05:23;11.30;;;4.07;;
65715;SDS011;63484;52.054;8.518;2023-02-28T18:10:26;6.67;;;3.90;;
65715;SDS011;63484;52.054;8.518;2023-02-28T18:15:28;7.60;;;3.70;;
65715;SDS011;63484;52.054;8.518;2023-02-28T18:20:29;8.40;;;4.50;;
65715;SDS011;63484;52.054;8.518;2023-02-28T18:25:32;8.53;;;5.00;;
65715;SDS011;63484;52.054;8.518;2023-02-28T18:30:35;16.30;;;8.00;;
65715;SDS011;63484;52.054;8.518;2023-02-28T18:35:37;20.05;;;9.70;;
65715;SDS011;63484;52.054;8.518;2023-02-28T18:40:41;16.83;;;8.57;;
65715;SDS011;63484;52.054;8.518;2023-02-28T18:45:43;18.57;;;8.17;;
65715;SDS011;63484;52.054;8.518;2023-02-28T18:50:44;15.97;;;7.77;;
65715;SDS011;63484;52.054;8.518;2023-02-28T18:55:47;15.67;;;6.50;;
65715;SDS011;63484;52.054;8.518;2023-02-28T19:00:49;8.83;;;4.80;;
65715;SDS011;63484;52.054;8.518;2023-02-28T19:05:53;8.93;;;4.10;;
65715;SDS011;63484;52.054;8.518;2023-02-28T19:10:56;8.40;;;4.80;;
65715;SDS011;63484;52.054;8.518;2023-02-28T19:15:59;10.70;;;5.57;;
65715;SDS011;63484;52.054;8.518;2023-02-28T19:21:01;10.10;;;4.97;;
65715;SDS011;63484;52.054;8.518;2023-02-28T19:26:06;11.07;;;5.03;;
65715;SDS011;63484;52.054;8.518;2023-02-28T19:31:10;13.13;;;6.13;;
65715;SDS011;63484;52.054;8.518;2023-02-28T19:36:14;25.33;;;10.33;;
65715;SDS011;63484;52.054;8.518;2023-02-28T19:41:17;19.93;;;9.57;;
65715;SDS011;63484;52.054;8.518;2023-02-28T19:46:19;19.75;;;9.05;;
65715;SDS011;63484;52.054;8.518;2023-02-28T19:51:21;18.70;;;8.40;;
65715;SDS011;63484;52.054;8.518;2023-02-28T19:56:24;18.33;;;7.17;;
65715;SDS011;63484;52.054;8.518;2023-02-28T20:01:25;12.80;;;6.53;;
65715;SDS011;63484;52.054;8.518;2023-02-28T20:06:27;9.20;;;5.53;;
65715;SDS011;63484;52.054;8.518;2023-02-28T20:11:33;12.33;;;6.03;;
65715;SDS011;63484;52.054;8.518;2023-02-28T20:16:34;14.57;;;6.57;;
65715;SDS011;63484;52.054;8.518;2023-02-28T20:21:35;13.67;;;6.90;;
65715;SDS011;63484;52.054;8.518;2023-02-28T20:26:38;18.10;;;7.07;;
65715;SDS011;63484;52.054;8.518;2023-02-28T20:31:40;22.98;;;7.13;;
65715;SDS011;63484;52.054;8.518;2023-02-28T20:36:41;14.60;;;6.47;;
65715;SDS011;63484;52.054;8.518;2023-02-28T20:41:44;12.30;;;6.43;;
65715;SDS011;63484;52.054;8.518;2023-02-28T20:46:46;16.00;;;7.13;;
65715;SDS011;63484;52.054;8.518;2023-02-28T20:51:47;14.60;;;6.73;;
65715;SDS011;63484;52.054;8.518;2023-02-28T20:56:50;16.23;;;7.53;;
65715;SDS011;63484;52.054;8.518;2023-02-28T21:01:51;16.17;;;7.07;;
65715;SDS011;63484;52.054;8.518;2023-02-28T21:06:55;15.98;;;6.90;;
65715;SDS011;63484;52.054;8.518;2023-02-28T21:11:58;16.23;;;7.20;;
65715;SDS011;63484;52.054;8.518;2023-02-28T21:16:59;17.47;;;6.60;;
65715;SDS011;63484;52.054;8.518;2023-02-28T21:22:01;15.97;;;7.33;;
65715;SDS011;63484;52.054;8.518;2023-02-28T21:27:04;13.90;;;6.67;;
65715;SDS011;63484;52.054;8.518;2023-02-28T21:32:06;16.03;;;7.70;;
65715;SDS011;63484;52.054;8.518;2023-02-28T21:37:07;14.60;;;6.93;;
65715;SDS011;63484;52.054;8.518;2023-02-28T21:42:10;18.17;;;7.90;;
65715;SDS011;63484;52.054;8.518;2023-02-28T21:47:12;16.02;;;7.65;;
65715;SDS011;63484;52.054;8.518;2023-02-28T21:52:13;17.00;;;7.60;;
65715;SDS011;63484;52.054;8.518;2023-02-28T21:57:16;20.43;;;8.17;;
65715;SDS011;63484;52.054;8.518;2023-02-28T22:07:19;14.30;;;7.60;;
65715;SDS011;63484;52.054;8.518;2023-02-28T22:12:22;24.77;;;9.60;;
65715;SDS011;63484;52.054;8.518;2023-02-28T22:17:24;20.20;;;9.75;;
65715;SDS011;63484;52.054;8.518;2023-02-28T22:22:26;22.70;;;10.60;;
65715;SDS011;63484;52.054;8.518;2023-02-28T22:27:28;19.83;;;10.40;;
65715;SDS011;63484;52.054;8.518;2023-02-28T22:32:30;23.67;;;10.87;;
65715;SDS011;63484;52.054;8.518;2023-02-28T22:37:31;24.50;;;11.17;;
65715;SDS011;63484;52.054;8.518;2023-02-28T22:42:34;20.10;;;10.13;;
65715;SDS011;63484;52.054;8.518;2023-02-28T22:47:35;20.93;;;10.57;;
65715;SDS011;63484;52.054;8.518;2023-02-28T22:52:38;23.23;;;9.73;;
65715;SDS011;63484;52.054;8.518;2023-02-28T22:57:41;19.93;;;9.63;;
65715;SDS011;63484;52.054;8.518;2023-02-28T23:02:42;19.33;;;8.70;;
65715;SDS011;63484;52.054;8.518;2023-02-28T23:07:44;20.63;;;9.37;;
65715;SDS011;63484;52.054;8.518;2023-02-28T23:12:47;19.13;;;8.67;;
65715;SDS011;63484;52.054;8.518;2023-02-28T23:17:52;19.77;;;10.00;;
65715;SDS011;63484;52.054;8.518;2023-02-28T23:22:53;17.90;;;8.83;;
65715;SDS011;63484;52.054;8.518;2023-02-28T23:27:56;23.07;;;9.30;;
65715;SDS011;63484;52.054;8.518;2023-02-28T23:32:58;20.38;;;9.68;;
65715;SDS011;63484;52.054;8.518;2023-02-28T23:37:59;20.63;;;9.00;;
65715;SDS011;63484;52.054;8.518;2023-02-28T23:43:02;17.73;;;8.47;;
65715;SDS011;63484;52.054;8.518;2023-02-28T23:48:04;19.08;;;8.55;;
65715;SDS011;63484;52.054;8.518;2023-02-28T23:53:06;22.57;;;9.17;;
65715;SDS011;63484;52.054;8.518;2023-02-28T23:58:09;22.47;;;8.93;;
